Time;durP1;ratioP1;P1;durP2;ratioP2;P2;SDS_P1;SDS_P2;PMS_P1;PMS_P2;Temp;Humidity;BMP_temperature;BMP_pressure;BME280_temperature;BME280_humidity;BME280_pressure;Samples;Min_cycle;Max_cycle;Signal;HPM_P1;HPM_P2
2023/07/29 00:01:35;;;;;;;11.10;7.95;;;19.20;99.90;;;;;;5072993;28;20480;-49
2023/07/29 00:04:00;;;;;;;10.00;7.55;;;19.20;99.90;;;;;;5068645;28;20032;-52
2023/07/29 00:06:27;;;;;;;10.48;7.65;;;19.10;99.90;;;;;;5072676;28;20051;-50
2023/07/29 00:08:52;;;;;;;8.32;7.05;;;19.10;99.90;;;;;;5072964;28;20468;-50
2023/07/29 00:11:18;;;;;;;8.35;7.15;;;19.00;99.90;;;;;;5072901;28;20054;-46
2023/07/29 00:13:44;;;;;;;8.43;6.78;;;19.00;99.90;;;;;;5072519;28;20032;-49
2023/07/29 00:16:09;;;;;;;10.90;7.63;;;19.00;99.90;;;;;;5072497;28;20067;-49
2023/07/29 00:18:35;;;;;;;9.30;8.23;;;19.00;99.90;;;;;;5072575;28;20036;-52
2023/07/29 00:21:01;;;;;;;11.23;7.20;;;18.90;99.90;;;;;;5072557;28;20040;-49
2023/07/29 00:23:27;;;;;;;9.95;7.20;;;18.90;99.90;;;;;;5072617;28;20085;-48
2023/07/29 00:25:53;;;;;;;8.52;7.28;;;18.80;99.90;;;;;;5072197;28;20047;-49
2023/07/29 00:28:19;;;;;;;9.50;6.95;;;18.90;99.90;;;;;;5072667;28;20029;-51
2023/07/29 00:30:44;;;;;;;8.95;6.88;;;18.80;99.90;;;;;;5072562;28;20472;-51
2023/07/29 00:33:10;;;;;;;9.35;6.80;;;18.80;99.90;;;;;;5072351;28;20479;-51
2023/07/29 00:35:36;;;;;;;9.10;7.07;;;18.90;99.90;;;;;;5089557;28;20023;-48
2023/07/29 00:38:01;;;;;;;7.82;6.57;;;18.80;99.90;;;;;;5092222;28;20125;-48
2023/07/29 00:40:28;;;;;;;8.88;6.55;;;18.80;99.90;;;;;;5092433;28;20182;-49
2023/07/29 00:42:54;;;;;;;8.55;6.30;;;18.80;99.90;;;;;;5090918;28;20036;-47
2023/07/29 00:45:20;;;;;;;10.55;6.80;;;18.70;99.90;;;;;;5091012;28;20032;-47
2023/07/29 00:47:47;;;;;;;9.95;6.45;;;18.70;99.90;;;;;;5080834;28;20126;-49
2023/07/29 00:50:14;;;;;;;7.72;6.22;;;18.60;99.90;;;;;;5070914;28;20043;-47
2023/07/29 00:52:41;;;;;;;9.15;6.70;;;18.60;99.90;;;;;;5071698;28;20046;-47
2023/07/29 00:55:07;;;;;;;9.52;6.82;;;18.60;99.90;;;;;;5071944;28;20450;-50
2023/07/29 00:57:34;;;;;;;8.73;6.07;;;18.60;99.90;;;;;;5071916;28;20128;-51
2023/07/29 01:00:01;;;;;;;9.45;6.10;;;18.60;99.90;;;;;;5072095;28;20037;-50
2023/07/29 01:02:27;;;;;;;7.65;5.85;;;18.50;99.90;;;;;;5071806;28;20123;-49
2023/07/29 01:04:55;;;;;;;7.90;5.90;;;18.50;99.90;;;;;;5071553;28;20052;-48
2023/07/29 01:07:28;;;;;;;7.10;5.43;;;18.50;99.90;;;;;;5071815;28;20090;-49
2023/07/29 01:10:01;;;;;;;8.90;5.70;;;18.40;99.90;;;;;;5071441;28;20508;-47
2023/07/29 01:12:47;;;;;;;6.82;5.88;;;18.40;99.90;;;;;;5071596;28;20066;-48
2023/07/29 01:15:23;;;;;;;9.25;6.05;;;18.40;99.90;;;;;;5071254;28;20464;-50
2023/07/29 01:17:55;;;;;;;9.13;5.75;;;18.30;99.90;;;;;;5071246;28;20041;-52
2023/07/29 01:20:23;;;;;;;8.98;5.90;;;18.20;99.90;;;;;;5071254;28;20047;-50
2023/07/29 01:22:49;;;;;;;7.75;5.15;;;18.20;99.90;;;;;;5070167;28;20051;-50
2023/07/29 01:25:15;;;;;;;7.97;5.60;;;18.10;99.90;;;;;;5070962;28;20469;-46
2023/07/29 01:27:46;;;;;;;7.78;5.07;;;18.10;99.90;;;;;;5071455;28;20044;-50
2023/07/29 01:30:12;;;;;;;7.78;5.47;;;18.10;99.90;;;;;;5071410;28;20032;-50
2023/07/29 01:33:04;;;;;;;7.05;5.53;;;18.10;99.90;;;;;;5069184;28;20040;-51
2023/07/29 01:35:32;;;;;;;7.35;5.15;;;18.10;99.90;;;;;;5073776;28;20032;-51
2023/07/29 01:38:05;;;;;;;7.22;5.53;;;18.00;99.90;;;;;;5071360;28;20037;-46
2023/07/29 01:40:31;;;;;;;7.82;5.85;;;18.00;99.90;;;;;;5071019;28;20511;-51
2023/07/29 01:42:57;;;;;;;7.07;5.03;;;18.00;99.90;;;;;;5071158;28;20040;-50
2023/07/29 01:45:25;;;;;;;9.68;5.55;;;18.00;99.90;;;;;;5070504;28;20115;-49
2023/07/29 01:47:52;;;;;;;7.20;5.43;;;18.10;99.90;;;;;;5071209;28;20121;-50
2023/07/29 01:50:17;;;;;;;7.47;5.53;;;18.00;99.90;;;;;;5070600;28;20048;-50
2023/07/29 01:52:43;;;;;;;8.10;5.30;;;18.10;99.90;;;;;;5089337;28;20450;-50
2023/07/29 01:55:09;;;;;;;8.32;4.63;;;18.10;99.90;;;;;;5090196;28;20109;-53
2023/07/29 01:57:34;;;;;;;8.45;5.05;;;18.10;99.90;;;;;;5091196;28;20074;-49
2023/07/29 02:00:00;;;;;;;6.85;5.60;;;18.20;99.90;;;;;;5090922;28;20129;-47
2023/07/29 02:02:26;;;;;;;6.30;4.60;;;18.10;99.90;;;;;;5079650;28;20063;-47
2023/07/29 02:04:52;;;;;;;7.82;5.25;;;18.10;99.90;;;;;;5071147;28;20086;-51
2023/07/29 02:07:21;;;;;;;6.88;4.60;;;18.20;99.90;;;;;;5089143;28;20058;-53
2023/07/29 02:09:46;;;;;;;9.02;5.15;;;18.10;99.90;;;;;;5090690;28;20047;-50
2023/07/29 02:12:12;;;;;;;7.30;4.70;;;18.20;99.90;;;;;;5090925;28;20036;-52
2023/07/29 02:14:38;;;;;;;7.63;4.63;;;18.30;99.90;;;;;;5090543;28;20044;-49
2023/07/29 02:17:04;;;;;;;7.20;5.25;;;18.30;99.90;;;;;;5087332;28;20086;-48
2023/07/29 02:19:30;;;;;;;6.97;5.03;;;18.20;99.90;;;;;;5069776;28;20033;-52
2023/07/29 02:21:55;;;;;;;9.73;4.75;;;18.30;99.90;;;;;;5070604;28;20036;-51
2023/07/29 02:24:21;;;;;;;7.65;5.18;;;18.20;99.90;;;;;;5070729;28;20357;-50
2023/07/29 02:26:47;;;;;;;7.50;5.50;;;18.30;99.90;;;;;;5086327;28;20480;-49
2023/07/29 02:29:12;;;;;;;8.15;4.75;;;18.30;99.90;;;;;;5069461;28;20036;-50
2023/07/29 02:31:38;;;;;;;7.50;4.90;;;18.30;99.90;;;;;;5069618;28;20036;-49
2023/07/29 02:34:04;;;;;;;7.07;4.68;;;18.20;99.90;;;;;;5070599;28;20041;-47
2023/07/29 02:36:30;;;;;;;7.53;4.78;;;18.20;99.90;;;;;;5070592;28;20028;-52
2023/07/29 02:38:56;;;;;;;7.60;4.63;;;18.20;99.90;;;;;;5070216;28;20040;-49
2023/07/29 02:41:21;;;;;;;7.43;5.07;;;18.10;99.90;;;;;;5070628;28;20044;-51
2023/07/29 02:43:50;;;;;;;6.55;4.30;;;18.10;99.90;;;;;;5070623;28;20041;-48
2023/07/29 02:46:17;;;;;;;7.80;4.50;;;18.00;99.90;;;;;;5070535;28;20115;-48
2023/07/29 02:48:44;;;;;;;7.30;4.53;;;18.00;99.90;;;;;;5070636;28;20051;-50
2023/07/29 02:51:10;;;;;;;8.73;4.50;;;18.00;99.90;;;;;;5070138;28;20037;-50
2023/07/29 02:53:38;;;;;;;8.45;4.40;;;17.90;99.90;;;;;;5073980;28;20054;-50
2023/07/29 02:56:06;;;;;;;6.18;3.95;;;17.90;99.90;;;;;;5090003;28;20048;-52
2023/07/29 02:58:31;;;;;;;6.30;4.38;;;17.90;99.90;;;;;;5090553;28;20048;-48
2023/07/29 03:01:02;;;;;;;6.97;4.20;;;17.90;99.90;;;;;;5090752;28;20051;-48
2023/07/29 03:03:28;;;;;;;7.80;4.57;;;17.90;99.90;;;;;;5073630;28;20429;-49
2023/07/29 03:06:05;;;;;;;6.68;4.28;;;17.90;99.90;;;;;;5071400;28;20127;-51
2023/07/29 03:08:30;;;;;;;11.60;4.22;;;17.80;99.90;;;;;;5074172;28;20483;-51
2023/07/29 03:10:57;;;;;;;7.50;4.20;;;17.70;99.90;;;;;;5073999;28;20131;-51
2023/07/29 03:13:23;;;;;;;5.82;3.85;;;17.70;99.90;;;;;;5084661;28;20094;-48
2023/07/29 03:15:48;;;;;;;7.13;4.03;;;17.70;99.90;;;;;;5073573;28;20040;-49
2023/07/29 03:18:15;;;;;;;6.40;4.15;;;17.70;99.90;;;;;;5093768;28;20028;-49
2023/07/29 03:20:41;;;;;;;7.13;3.75;;;17.70;99.90;;;;;;5094229;28;20036;-50
2023/07/29 03:23:07;;;;;;;6.43;3.75;;;17.60;99.90;;;;;;5093682;28;20032;-49
2023/07/29 03:25:33;;;;;;;6.70;3.80;;;17.60;99.90;;;;;;5093722;28;20042;-48
2023/07/29 03:27:59;;;;;;;6.97;3.95;;;17.60;99.90;;;;;;5094069;28;20024;-51
2023/07/29 03:30:24;;;;;;;6.20;3.72;;;17.60;99.90;;;;;;5093925;28;20087;-50
2023/07/29 03:32:51;;;;;;;7.25;3.80;;;17.60;99.90;;;;;;5094236;28;20075;-50
2023/07/29 03:35:17;;;;;;;4.88;3.67;;;17.60;99.90;;;;;;5093699;28;20032;-49
2023/07/29 03:37:43;;;;;;;6.03;3.60;;;17.50;99.90;;;;;;5093816;28;20051;-48
2023/07/29 03:40:09;;;;;;;8.15;3.95;;;17.60;99.90;;;;;;5093609;28;20111;-52
2023/07/29 03:42:36;;;;;;;7.18;3.80;;;17.50;99.90;;;;;;5081420;28;20509;-52
2023/07/29 03:45:01;;;;;;;5.88;3.45;;;17.50;99.90;;;;;;5072574;28;20063;-52
2023/07/29 03:47:27;;;;;;;6.70;3.47;;;17.50;99.90;;;;;;5070253;28;20049;-48
2023/07/29 03:49:54;;;;;;;6.03;3.20;;;17.50;99.90;;;;;;5072919;28;20036;-52
2023/07/29 03:52:19;;;;;;;4.90;3.15;;;17.50;99.90;;;;;;5073151;28;20090;-48
2023/07/29 03:54:45;;;;;;;4.45;3.17;;;17.50;99.90;;;;;;5090963;28;20118;-47
2023/07/29 03:57:11;;;;;;;6.53;3.67;;;17.50;99.90;;;;;;5084802;28;20149;-46
2023/07/29 03:59:37;;;;;;;6.57;3.53;;;17.50;99.90;;;;;;5073157;28;20028;-51
2023/07/29 04:02:02;;;;;;;5.88;3.35;;;17.50;99.90;;;;;;5073220;28;20415;-47
2023/07/29 04:04:28;;;;;;;6.15;3.35;;;17.50;99.90;;;;;;5072942;28;20039;-48
2023/07/29 04:06:54;;;;;;;5.68;3.13;;;17.50;99.90;;;;;;5072756;28;20510;-50
2023/07/29 04:09:20;;;;;;;5.80;3.25;;;17.50;99.90;;;;;;5071574;28;20043;-49
2023/07/29 04:11:45;;;;;;;6.18;3.30;;;17.50;99.90;;;;;;5072918;28;20048;-52
2023/07/29 04:14:11;;;;;;;7.15;3.28;;;17.40;99.90;;;;;;5083461;28;20028;-47
2023/07/29 04:16:37;;;;;;;5.10;3.15;;;17.40;99.90;;;;;;5091711;28;20035;-47
2023/07/29 04:19:02;;;;;;;4.78;3.08;;;17.40;99.90;;;;;;5079831;28;20087;-49
2023/07/29 04:21:28;;;;;;;5.55;2.92;;;17.40;99.90;;;;;;5072757;28;20070;-51
2023/07/29 04:23:54;;;;;;;5.95;3.30;;;17.40;99.90;;;;;;5072450;28;20472;-50
2023/07/29 04:26:19;;;;;;;7.07;3.42;;;17.40;99.90;;;;;;5072657;28;20531;-47
2023/07/29 04:28:45;;;;;;;5.28;3.00;;;17.30;99.90;;;;;;5072103;28;20110;-51
2023/07/29 04:31:11;;;;;;;6.70;3.30;;;17.30;99.90;;;;;;5089938;28;20464;-52
2023/07/29 04:33:36;;;;;;;5.60;3.20;;;17.30;99.90;;;;;;5074934;28;20136;-51
2023/07/29 04:36:02;;;;;;;6.32;3.30;;;17.30;99.90;;;;;;5071155;28;20033;-47
2023/07/29 04:38:35;;;;;;;5.68;3.10;;;17.30;99.90;;;;;;5072051;28;20124;-47
2023/07/29 04:41:01;;;;;;;4.97;2.97;;;17.40;99.90;;;;;;5072213;28;20032;-49
2023/07/29 04:43:32;;;;;;;6.95;3.35;;;17.40;99.90;;;;;;5071953;28;20058;-51
2023/07/29 04:45:57;;;;;;;5.82;3.20;;;17.30;99.90;;;;;;5071679;28;20407;-52
2023/07/29 04:48:23;;;;;;;5.82;3.25;;;17.30;99.90;;;;;;5072083;28;20040;-48
2023/07/29 04:50:49;;;;;;;7.43;3.75;;;17.30;99.90;;;;;;5072220;28;20069;-48
2023/07/29 04:53:14;;;;;;;6.78;3.78;;;17.30;99.90;;;;;;5071834;28;20033;-49
2023/07/29 04:55:43;;;;;;;8.52;3.63;;;17.30;99.90;;;;;;5089420;28;20052;-52
2023/07/29 04:58:10;;;;;;;7.03;3.42;;;17.40;99.90;;;;;;5090438;28;20039;-48
2023/07/29 05:00:35;;;;;;;7.32;4.05;;;17.40;99.90;;;;;;5090980;28;20065;-46
2023/07/29 05:03:01;;;;;;;7.45;4.05;;;17.40;99.90;;;;;;5081373;28;20565;-45
2023/07/29 05:05:27;;;;;;;8.93;4.53;;;17.40;99.90;;;;;;5071447;28;20520;-48
2023/07/29 05:07:52;;;;;;;7.72;4.40;;;17.40;99.90;;;;;;5071963;28;20093;-49
2023/07/29 05:10:19;;;;;;;8.60;4.70;;;17.50;99.90;;;;;;5087178;28;20476;-49
2023/07/29 05:12:45;;;;;;;8.65;4.68;;;17.40;99.90;;;;;;5071747;28;20044;-49
2023/07/29 05:15:10;;;;;;;10.25;5.80;;;17.50;99.90;;;;;;5071346;28;20036;-48
2023/07/29 05:17:36;;;;;;;9.43;5.72;;;17.50;99.90;;;;;;5070034;28;20506;-51
2023/07/29 05:20:02;;;;;;;8.60;5.20;;;17.40;99.90;;;;;;5069516;28;20111;-50
2023/07/29 05:22:28;;;;;;;11.43;5.97;;;17.50;99.90;;;;;;5075744;28;20062;-48
2023/07/29 05:24:54;;;;;;;9.55;6.28;;;17.40;99.90;;;;;;5089049;28;20557;-47
2023/07/29 05:27:19;;;;;;;11.82;6.30;;;17.60;99.90;;;;;;5091918;28;20043;-49
2023/07/29 05:29:45;;;;;;;11.57;6.95;;;17.60;99.90;;;;;;5091538;28;20043;-49
2023/07/29 05:32:10;;;;;;;11.20;6.72;;;17.50;99.90;;;;;;5091734;28;20127;-46
2023/07/29 05:34:36;;;;;;;10.98;6.03;;;17.50;99.90;;;;;;5091703;28;20032;-49
2023/07/29 05:37:02;;;;;;;11.32;6.80;;;17.60;99.90;;;;;;5091674;28;20024;-52
2023/07/29 05:39:28;;;;;;;11.68;6.50;;;17.60;99.90;;;;;;5091447;28;20047;-47
2023/07/29 05:41:54;;;;;;;13.15;6.68;;;17.60;99.90;;;;;;5083274;28;20039;-49
2023/07/29 05:44:20;;;;;;;11.90;6.85;;;17.50;99.90;;;;;;5070997;28;20120;-46
2023/07/29 05:46:45;;;;;;;9.95;6.80;;;17.60;99.90;;;;;;5071091;28;20047;-49
2023/07/29 05:49:11;;;;;;;13.32;7.45;;;17.70;99.90;;;;;;5068005;28;20036;-51
2023/07/29 05:51:37;;;;;;;10.18;6.25;;;17.60;99.90;;;;;;5070898;28;20106;-51
2023/07/29 05:54:03;;;;;;;11.30;6.55;;;17.60;99.90;;;;;;5070537;28;20115;-48
2023/07/29 05:56:31;;;;;;;12.52;6.60;;;17.50;99.90;;;;;;5070517;28;20071;-51
2023/07/29 05:58:57;;;;;;;11.48;7.00;;;17.70;99.90;;;;;;5070936;28;20043;-48
2023/07/29 06:01:22;;;;;;;13.23;6.50;;;17.60;99.90;;;;;;5071191;28;20044;-45
2023/07/29 06:03:48;;;;;;;11.05;6.45;;;17.60;99.90;;;;;;5070495;28;20491;-48
2023/07/29 06:06:14;;;;;;;12.15;6.88;;;17.70;99.90;;;;;;5071031;28;20032;-56
2023/07/29 06:08:39;;;;;;;10.45;6.53;;;17.70;99.90;;;;;;5070693;28;20507;-48
2023/07/29 06:11:06;;;;;;;10.18;6.55;;;17.90;99.90;;;;;;5070876;28;20090;-50
2023/07/29 06:13:32;;;;;;;12.45;7.20;;;17.80;99.90;;;;;;5090666;28;20039;-51
2023/07/29 06:15:58;;;;;;;11.32;6.47;;;17.90;99.90;;;;;;5090756;28;20039;-49
2023/07/29 06:18:25;;;;;;;10.50;6.40;;;18.00;99.90;;;;;;5090863;28;20468;-47
2023/07/29 06:20:51;;;;;;;12.55;6.90;;;18.00;99.90;;;;;;5086515;28;20160;-47
2023/07/29 06:23:17;;;;;;;9.95;6.32;;;18.10;99.90;;;;;;5069959;28;20041;-49
2023/07/29 06:25:42;;;;;;;12.55;6.47;;;18.10;99.90;;;;;;5070005;28;20041;-50
2023/07/29 06:28:09;;;;;;;9.27;6.00;;;18.10;99.90;;;;;;5069854;28;20041;-48
2023/07/29 06:30:35;;;;;;;10.52;6.28;;;18.20;99.90;;;;;;5068129;28;20044;-46
2023/07/29 06:33:01;;;;;;;11.90;6.38;;;18.10;99.90;;;;;;5067216;28;20392;-49
2023/07/29 06:35:26;;;;;;;11.85;5.90;;;18.20;99.90;;;;;;5070663;28;20551;-50
2023/07/29 06:37:52;;;;;;;11.85;5.72;;;18.30;99.90;;;;;;5070837;28;20040;-51
2023/07/29 06:40:18;;;;;;;11.77;6.32;;;18.20;99.90;;;;;;5068691;28;20040;-48
2023/07/29 06:42:43;;;;;;;9.48;5.75;;;18.30;99.90;;;;;;5071981;28;20045;-48
2023/07/29 06:45:10;;;;;;;9.90;5.40;;;18.30;99.90;;;;;;5074021;28;20468;-48
2023/07/29 06:47:35;;;;;;;11.07;6.03;;;18.30;99.90;;;;;;5074413;28;20036;-52
2023/07/29 06:50:01;;;;;;;9.05;5.68;;;18.40;99.90;;;;;;5074416;28;20044;-50
2023/07/29 06:52:27;;;;;;;8.23;5.53;;;18.30;99.90;;;;;;5072673;28;20492;-50
2023/07/29 06:54:52;;;;;;;10.32;5.68;;;18.40;99.90;;;;;;5067209;28;20119;-50
2023/07/29 06:57:18;;;;;;;10.35;5.43;;;18.50;99.90;;;;;;5069165;28;20089;-51
2023/07/29 06:59:44;;;;;;;9.65;5.55;;;18.50;99.90;;;;;;5068157;28;20036;-51
2023/07/29 07:02:09;;;;;;;11.23;5.65;;;18.60;99.90;;;;;;5049208;28;20086;-48
2023/07/29 07:04:35;;;;;;;9.68;5.28;;;18.70;99.90;;;;;;5068933;28;20036;-48
2023/07/29 07:07:01;;;;;;;9.18;5.70;;;18.80;99.90;;;;;;5068950;28;20034;-50
2023/07/29 07:09:26;;;;;;;9.52;5.63;;;18.90;99.90;;;;;;5070157;28;20059;-52
2023/07/29 07:11:52;;;;;;;9.75;5.60;;;18.90;99.90;;;;;;5071070;28;20126;-47
2023/07/29 07:14:18;;;;;;;11.80;5.63;;;19.00;99.90;;;;;;5069165;28;20039;-48
2023/07/29 07:16:44;;;;;;;9.88;5.22;;;18.80;99.90;;;;;;5068309;28;20055;-46
2023/07/29 07:19:10;;;;;;;10.27;5.28;;;18.80;99.90;;;;;;5082109;28;20407;-50
2023/07/29 07:21:36;;;;;;;10.65;4.75;;;18.80;99.90;;;;;;5068876;28;20126;-52
2023/07/29 07:24:02;;;;;;;9.55;5.20;;;18.80;99.90;;;;;;5070043;28;20444;-51
2023/07/29 07:26:28;;;;;;;10.55;5.45;;;18.90;99.90;;;;;;5069823;28;20044;-48
2023/07/29 07:28:53;;;;;;;9.35;5.85;;;18.90;99.90;;;;;;5069078;28;20039;-48
2023/07/29 07:31:19;;;;;;;9.90;5.90;;;19.00;99.90;;;;;;5070187;28;20188;-52
2023/07/29 07:33:45;;;;;;;8.15;5.05;;;19.00;99.90;;;;;;5067130;28;20037;-48
2023/07/29 07:36:10;;;;;;;10.85;5.03;;;19.10;99.90;;;;;;5067268;28;20029;-48
2023/07/29 07:38:36;;;;;;;9.48;4.63;;;19.20;99.90;;;;;;5069273;28;20036;-50
2023/07/29 07:41:02;;;;;;;10.27;4.95;;;19.30;99.90;;;;;;5067393;28;20530;-48
2023/07/29 07:43:28;;;;;;;9.05;4.18;;;19.20;99.90;;;;;;5069615;28;20055;-50
2023/07/29 07:46:01;;;;;;;8.48;3.88;;;19.40;99.90;;;;;;5067373;28;20568;-50
2023/07/29 07:48:29;;;;;;;11.82;4.22;;;19.50;99.90;;;;;;5070978;28;20040;-49
2023/07/29 07:50:55;;;;;;;9.38;4.00;;;19.60;99.90;;;;;;5071029;28;20048;-49
2023/07/29 07:53:21;;;;;;;7.82;3.80;;;19.70;99.90;;;;;;5068739;28;20032;-48
2023/07/29 07:55:47;;;;;;;9.45;4.07;;;19.80;99.90;;;;;;5071128;28;20057;-51
2023/07/29 07:58:13;;;;;;;7.68;3.67;;;19.80;99.90;;;;;;5071335;28;20166;-47
2023/07/29 08:00:39;;;;;;;7.10;3.22;;;19.80;99.90;;;;;;5070943;28;20058;-48
2023/07/29 08:03:04;;;;;;;6.78;3.25;;;19.90;99.90;;;;;;5070922;28;20040;-48
2023/07/29 08:05:30;;;;;;;9.82;3.60;;;20.00;99.90;;;;;;5071465;28;20064;-48
2023/07/29 08:07:57;;;;;;;5.80;3.10;;;20.10;99.90;;;;;;5070656;28;20056;-47
2023/07/29 08:10:22;;;;;;;9.27;3.95;;;20.20;99.90;;;;;;5072987;28;20454;-53
2023/07/29 08:12:48;;;;;;;5.95;3.30;;;20.10;99.90;;;;;;5070889;28;20032;-50
2023/07/29 08:15:14;;;;;;;6.57;3.05;;;20.20;99.90;;;;;;5071064;28;20029;-49
2023/07/29 08:17:39;;;;;;;5.85;3.08;;;20.30;99.90;;;;;;5070765;28;20535;-49
2023/07/29 08:20:06;;;;;;;6.90;2.90;;;20.30;99.90;;;;;;5068094;28;20442;-49
2023/07/29 08:22:32;;;;;;;8.52;2.70;;;20.30;99.90;;;;;;5070971;28;20407;-50
2023/07/29 08:24:57;;;;;;;7.03;2.65;;;20.30;99.90;;;;;;5071329;28;20048;-51
2023/07/29 08:27:23;;;;;;;7.93;2.83;;;20.40;99.90;;;;;;5070244;28;20446;-51
2023/07/29 08:29:49;;;;;;;7.22;2.65;;;20.30;99.90;;;;;;5067382;28;20435;-51
2023/07/29 08:32:14;;;;;;;6.88;2.60;;;20.30;99.90;;;;;;5070465;28;20098;-51
2023/07/29 08:34:40;;;;;;;7.57;2.90;;;20.30;99.90;;;;;;5069065;28;20040;-52
2023/07/29 08:37:06;;;;;;;7.18;2.60;;;20.20;99.90;;;;;;5068161;28;20463;-48
2023/07/29 08:39:32;;;;;;;6.75;2.30;;;20.30;99.90;;;;;;5066645;28;20048;-51
2023/07/29 10:30:14;;;;;;;6.28;4.03;;;20.90;99.90;;;;;;5289041;24;20375;-49
2023/07/29 10:32:46;;;;;;;6.35;3.45;;;20.80;99.90;;;;;;4791030;29;20140;-50
2023/07/29 10:35:15;;;;;;;7.55;3.40;;;20.90;99.90;;;;;;4795978;29;20477;-47
2023/07/29 10:37:42;;;;;;;7.57;2.97;;;20.90;99.90;;;;;;4795649;29;20043;-50
2023/07/29 10:40:09;;;;;;;5.72;2.60;;;21.00;99.90;;;;;;4793173;29;20138;-49
2023/07/29 10:42:36;;;;;;;6.53;2.38;;;21.20;99.90;;;;;;4789269;29;20039;-46
2023/07/29 10:45:20;;;;;;;6.45;2.60;;;21.50;99.90;;;;;;4790557;29;20099;-48
2023/07/29 10:47:47;;;;;;;;;;;21.70;99.90;;;;;;4790844;29;20454;-50
2023/07/29 10:50:20;;;;;;;6.43;2.38;;;21.70;99.90;;;;;;4799194;29;19927;-49
2023/07/29 10:52:52;;;;;;;;;;;21.70;99.90;;;;;;4798184;29;20051;-50
2023/07/29 10:55:38;;;;;;;6.28;2.40;;;21.60;99.90;;;;;;4795839;29;19932;-48
2023/07/29 10:58:11;;;;;;;5.43;2.00;;;21.40;99.90;;;;;;4800009;29;20118;-51
2023/07/29 11:00:38;;;;;;;4.88;2.03;;;21.30;99.90;;;;;;4802448;29;20497;-48
2023/07/29 11:03:06;;;;;;;5.65;1.98;;;21.30;99.90;;;;;;4794702;29;20054;-50
2023/07/29 11:05:49;;;;;;;7.50;2.47;;;21.20;99.90;;;;;;4798129;29;20045;-50
2023/07/29 11:08:31;;;;;;;4.60;1.80;;;21.30;99.90;;;;;;4797329;29;20047;-48
2023/07/29 11:11:05;;;;;;;8.00;2.28;;;21.30;99.90;;;;;;4801918;29;20082;-48
2023/07/29 11:13:33;;;;;;;6.80;2.40;;;21.30;99.90;;;;;;4800868;29;20086;-46
2023/07/29 11:15:59;;;;;;;5.68;2.10;;;21.20;99.90;;;;;;4801819;29;20046;-49
2023/07/29 11:18:30;;;;;;;5.38;1.90;;;21.40;99.90;;;;;;4800734;29;20050;-49
2023/07/29 11:20:57;;;;;;;4.90;1.95;;;21.50;99.90;;;;;;4802157;29;20046;-46
2023/07/29 11:23:32;;;;;;;6.63;2.50;;;21.70;99.90;;;;;;4801081;29;20115;-48
2023/07/29 11:25:58;;;;;;;6.13;2.13;;;22.10;99.90;;;;;;4802109;29;20050;-50
2023/07/29 11:28:25;;;;;;;5.70;2.10;;;22.30;99.90;;;;;;4804557;29;20133;-51
2023/07/29 11:30:51;;;;;;;6.65;2.03;;;22.60;99.90;;;;;;4804652;29;20047;-49
2023/07/29 11:33:21;;;;;;;6.38;1.98;;;22.70;99.90;;;;;;4804328;29;20107;-47
2023/07/29 11:35:47;;;;;;;6.38;2.15;;;22.70;99.90;;;;;;4805524;29;20043;-53
2023/07/29 11:38:18;;;;;;;4.28;1.88;;;22.80;99.90;;;;;;4803962;29;20390;-49
2023/07/29 11:40:54;;;;;;;5.30;1.92;;;22.90;99.90;;;;;;4805001;29;20046;-49
2023/07/29 11:43:20;;;;;;;6.78;2.10;;;23.00;99.90;;;;;;4804523;29;20510;-47
2023/07/29 11:45:45;;;;;;;7.30;2.08;;;23.20;99.90;;;;;;4803801;29;20054;-50
2023/07/29 11:48:11;;;;;;;5.45;2.10;;;23.40;99.90;;;;;;4804107;29;20050;-48
2023/07/29 11:50:37;;;;;;;5.32;1.90;;;23.50;99.90;;;;;;4805424;29;20074;-51
2023/07/29 11:53:02;;;;;;;7.65;2.13;;;23.60;99.90;;;;;;4805423;29;20039;-48
2023/07/29 11:55:28;;;;;;;8.52;5.30;;;23.70;99.90;;;;;;4819811;29;20478;-52
2023/07/29 11:57:54;;;;;;;15.45;9.07;;;23.70;99.90;;;;;;4805803;29;20479;-51
2023/07/29 12:00:21;;;;;;;8.45;3.20;;;23.60;99.90;;;;;;4805613;29;20038;-48
2023/07/29 12:02:48;;;;;;;31.92;26.95;;;23.70;99.90;;;;;;4803953;29;20913;-50
2023/07/29 12:05:15;;;;;;;8.05;4.22;;;23.70;99.90;;;;;;4804286;29;20054;-52
2023/07/29 12:07:43;;;;;;;6.10;3.53;;;23.80;99.90;;;;;;4804008;29;20055;-52
2023/07/29 12:10:09;;;;;;;7.13;3.80;;;24.10;99.90;;;;;;4805408;29;20050;-50
2023/07/29 12:12:46;;;;;;;5.05;2.15;;;24.30;99.90;;;;;;4804746;29;20035;-48
2023/07/29 12:15:11;;;;;;;6.15;2.60;;;24.20;99.90;;;;;;4804558;29;20047;-49
2023/07/29 12:17:41;;;;;;;5.40;1.85;;;24.10;99.90;;;;;;4801680;29;20107;-46
2023/07/29 12:20:10;;;;;;;4.85;1.95;;;23.90;99.90;;;;;;4804057;29;20111;-53
2023/07/29 12:22:36;;;;;;;19.48;13.60;;;23.70;99.90;;;;;;4803644;29;20042;-51
2023/07/29 12:25:03;;;;;;;15.27;9.68;;;23.50;99.90;;;;;;4803139;29;20050;-47
2023/07/29 12:27:31;;;;;;;9.50;4.68;;;23.30;99.90;;;;;;4817483;29;20050;-49
2023/07/29 12:30:00;;;;;;;5.68;2.42;;;23.30;99.90;;;;;;4804092;29;20080;-48
2023/07/29 12:32:26;;;;;;;6.93;2.50;;;23.20;99.90;;;;;;4803836;29;20107;-52
2023/07/29 12:34:53;;;;;;;5.65;1.92;;;22.90;99.90;;;;;;4804603;29;20043;-49
2023/07/29 12:37:19;;;;;;;7.13;2.25;;;22.90;99.90;;;;;;4804438;29;20050;-47
2023/07/29 12:39:45;;;;;;;8.13;3.13;;;22.90;99.90;;;;;;4804918;29;20039;-52
2023/07/29 12:42:11;;;;;;;18.95;11.07;;;22.90;99.90;;;;;;4805199;29;20520;-48
2023/07/29 12:44:37;;;;;;;9.73;6.47;;;22.90;99.90;;;;;;4805077;29;20455;-48
2023/07/29 12:47:05;;;;;;;4.95;2.33;;;22.80;99.90;;;;;;4804667;29;20529;-51
2023/07/29 12:49:32;;;;;;;6.95;2.97;;;22.70;99.90;;;;;;4805514;29;20050;-48
2023/07/29 12:51:58;;;;;;;5.90;1.92;;;22.60;99.90;;;;;;4805241;29;20078;-48
2023/07/29 12:54:25;;;;;;;6.15;2.00;;;22.70;99.90;;;;;;4805119;29;20112;-46
2023/07/29 12:56:51;;;;;;;7.75;2.15;;;22.70;99.90;;;;;;4804908;29;20053;-50
2023/07/29 12:59:17;;;;;;;5.47;1.80;;;22.60;99.90;;;;;;4803948;29;20372;-48
2023/07/29 13:01:43;;;;;;;6.88;2.00;;;22.50;99.90;;;;;;4803466;29;20089;-50
2023/07/29 13:04:10;;;;;;;5.57;2.08;;;22.40;99.90;;;;;;4805073;29;20047;-49
2023/07/29 13:06:36;;;;;;;6.22;2.35;;;22.20;99.90;;;;;;4805058;29;20042;-49
2023/07/29 13:09:03;;;;;;;7.97;2.60;;;22.10;99.90;;;;;;4804488;29;20099;-46
2023/07/29 13:11:28;;;;;;;7.72;2.53;;;22.00;99.90;;;;;;4804477;29;20120;-50
2023/07/29 13:13:54;;;;;;;7.30;2.60;;;22.00;99.90;;;;;;4804786;29;20046;-49
2023/07/29 13:16:20;;;;;;;7.03;2.65;;;21.90;99.90;;;;;;4804493;29;20039;-50
2023/07/29 13:18:45;;;;;;;5.55;2.38;;;21.90;99.90;;;;;;4818181;29;20122;-48
2023/07/29 13:21:11;;;;;;;4.60;1.55;;;21.80;99.90;;;;;;4798062;29;20131;-49
2023/07/29 13:23:37;;;;;;;5.18;1.77;;;21.70;99.90;;;;;;4803217;29;20046;-47
2023/07/29 13:26:02;;;;;;;7.07;2.30;;;21.60;99.90;;;;;;4802124;29;20046;-50
2023/07/29 13:28:28;;;;;;;6.72;3.92;;;21.50;99.90;;;;;;4802909;29;20038;-49
2023/07/29 13:30:54;;;;;;;9.70;3.28;;;21.30;99.90;;;;;;4801793;29;20058;-49
2023/07/29 13:33:20;;;;;;;10.90;6.20;;;21.00;99.90;;;;;;4801838;29;20059;-46
2023/07/29 13:35:45;;;;;;;8.73;5.90;;;20.80;99.90;;;;;;4801294;29;20047;-48
2023/07/29 13:38:11;;;;;;;9.68;6.30;;;20.80;99.90;;;;;;4803388;29;20479;-45
2023/07/29 13:40:37;;;;;;;7.10;5.22;;;21.20;99.90;;;;;;4802728;29;20138;-44
2023/07/29 13:43:02;;;;;;;7.07;4.25;;;21.60;99.90;;;;;;4801300;29;20517;-51
2023/07/29 13:45:28;;;;;;;7.47;4.50;;;22.00;99.90;;;;;;4802920;29;20054;-51
2023/07/29 13:47:54;;;;;;;6.70;4.90;;;22.20;99.90;;;;;;4803996;29;20098;-44
2023/07/29 13:50:19;;;;;;;8.13;4.40;;;22.40;99.90;;;;;;4803106;29;20561;-47
2023/07/29 13:52:45;;;;;;;6.78;3.78;;;22.40;99.90;;;;;;4803874;29;20045;-50
2023/07/29 13:55:11;;;;;;;8.13;3.60;;;22.30;99.90;;;;;;4801707;29;20262;-48
2023/07/29 13:57:41;;;;;;;5.68;3.67;;;22.20;99.90;;;;;;4803914;29;20039;-48
2023/07/29 14:00:08;;;;;;;5.90;3.80;;;22.10;99.90;;;;;;4804128;29;20129;-48
2023/07/29 14:02:33;;;;;;;8.05;3.45;;;22.00;99.90;;;;;;4787502;29;20453;-44
2023/07/29 14:04:59;;;;;;;8.73;2.88;;;21.90;99.90;;;;;;4775120;29;20047;-48
2023/07/29 14:07:25;;;;;;;6.78;3.28;;;22.00;99.90;;;;;;4778813;29;20047;-51
2023/07/29 14:09:50;;;;;;;7.60;2.67;;;22.10;99.90;;;;;;4787944;29;20537;-49
2023/07/29 14:12:16;;;;;;;5.35;2.20;;;22.10;99.90;;;;;;4782420;29;20074;-47
2023/07/29 14:14:42;;;;;;;6.80;2.13;;;22.20;99.90;;;;;;4781490;29;20043;-49
2023/07/29 14:17:11;;;;;;;4.50;1.77;;;22.30;99.90;;;;;;4779455;29;70488;-50
2023/07/29 14:19:37;;;;;;;4.32;1.70;;;22.20;99.90;;;;;;4776798;29;20041;-49
2023/07/29 14:22:03;;;;;;;5.13;1.85;;;22.20;99.90;;;;;;4777853;29;20058;-48
2023/07/29 14:24:29;;;;;;;7.28;2.13;;;22.30;99.90;;;;;;4777612;29;20043;-51
2023/07/29 14:26:54;;;;;;;4.40;2.03;;;22.40;99.90;;;;;;4789872;29;20047;-47
2023/07/29 14:29:20;;;;;;;2.65;1.17;;;22.50;99.90;;;;;;4777958;29;20592;-47
2023/07/29 14:31:46;;;;;;;2.90;1.10;;;22.70;99.90;;;;;;4776128;29;20055;-50